Time;durP1;ratioP1;P1;durP2;ratioP2;P2;SDS_P1;SDS_P2;PMS_P1;PMS_P2;Temp;Humidity;BMP_temperature;BMP_pressure;BME280_temperature;BME280_humidity;BME280_pressure;Samples;Min_cycle;Max_cycle;Signal;HPM_P1;HPM_P2
2023/10/18 00:01:30;;;;;;;10.30;6.70;;;;;;;4.01;71.25;100142.77;106273;1271;58348;-85
2023/10/18 00:03:57;;;;;;;10.10;7.20;;;;;;;3.98;71.83;100141.27;106842;1275;59630;-84
2023/10/18 00:06:26;;;;;;;11.40;6.10;;;;;;;3.96;71.72;100139.67;107116;1279;71332;-82
2023/10/18 00:09:38;;;;;;;11.60;5.90;;;;;;;4.05;71.72;100135.45;107520;1273;69330;-83
2023/10/18 00:11:48;;;;;;;8.90;5.60;;;;;;;4.09;71.56;100135.46;107671;1272;70222;-85
2023/10/18 00:14:21;;;;;;;11.90;6.30;;;;;;;4.05;71.84;100129.84;107386;1273;58150;-82
2023/10/18 00:16:48;;;;;;;10.90;5.70;;;;;;;4.03;71.81;100128.95;106301;1272;59656;-85
2023/10/18 00:19:14;;;;;;;8.90;6.30;;;;;;;4.01;71.76;100127.73;104860;1276;71725;-78
2023/10/18 00:21:41;;;;;;;8.70;6.10;;;;;;;3.96;71.87;100125.27;104718;1276;59724;-80
2023/10/18 00:24:09;;;;;;;12.60;6.50;;;;;;;3.96;71.97;100123.33;104713;1274;74123;-78
2023/10/18 00:26:36;;;;;;;9.70;6.00;;;;;;;4.05;71.80;100125.78;104626;1277;59710;-82
2023/10/18 00:29:04;;;;;;;8.80;5.30;;;;;;;4.04;71.97;100124.65;104583;1271;59587;-83
2023/10/18 00:31:30;;;;;;;12.30;6.20;;;;;;;3.98;72.14;100123.35;105037;1271;71728;-79
2023/10/18 00:33:57;;;;;;;11.00;6.20;;;;;;;3.93;72.25;100120.41;105185;1271;70178;-81
2023/10/18 00:36:24;;;;;;;8.70;5.20;;;;;;;3.89;72.54;100122.27;104686;1273;72756;-80
2023/10/18 00:38:53;;;;;;;12.30;6.70;;;;;;;3.85;72.59;100120.98;106494;1271;59275;-79
2023/10/18 00:41:22;;;;;;;9.40;5.80;;;;;;;3.86;73.04;100122.66;105680;1271;59580;-84
2023/10/18 00:43:52;;;;;;;9.60;5.60;;;;;;;3.96;72.86;100115.96;105148;1271;73080;-83
2023/10/18 00:46:19;;;;;;;9.60;6.10;;;;;;;3.97;72.82;100113.63;104744;1274;68894;-82
2023/10/18 00:48:46;;;;;;;14.10;6.90;;;;;;;3.93;72.96;100114.81;104979;1278;73297;-80
2023/10/18 00:51:17;;;;;;;9.60;6.40;;;;;;;3.89;73.09;100114.55;105785;1276;59732;-82
2023/10/18 00:53:46;;;;;;;11.50;6.50;;;;;;;3.86;73.31;100112.38;105186;1274;59758;-81
2023/10/18 00:56:15;;;;;;;11.80;7.10;;;;;;;3.85;73.08;100104.18;105283;1276;72896;-82
2023/10/18 00:58:44;;;;;;;10.00;6.50;;;;;;;3.96;73.07;100106.00;104562;1271;70199;-83
2023/10/18 01:01:12;;;;;;;10.80;6.60;;;;;;;3.96;73.02;100106.36;104683;1271;73941;-81
2023/10/18 01:03:45;;;;;;;10.70;5.80;;;;;;;3.90;73.22;100106.58;104454;1271;59764;-79
2023/10/18 01:06:24;;;;;;;10.50;6.90;;;;;;;3.85;73.52;100106.11;104745;1271;60631;-81
2023/10/18 01:08:51;;;;;;;12.60;6.60;;;;;;;3.80;73.47;100111.73;104826;1271;72391;-80
2023/10/18 01:11:27;;;;;;;9.50;5.60;;;;;;;3.81;73.82;100106.99;105167;1273;70184;-81
2023/10/18 01:13:59;;;;;;;10.30;6.90;;;;;;;3.91;73.65;100108.83;106070;1271;73095;-82
2023/10/18 01:16:31;;;;;;;8.80;6.50;;;;;;;3.91;73.74;100107.20;106129;1270;60477;-82
2023/10/18 01:18:58;;;;;;;8.60;6.20;;;;;;;3.88;73.77;100111.32;105574;1270;60645;-80
2023/10/18 01:21:26;;;;;;;9.70;6.50;;;;;;;3.83;73.28;100114.56;104725;1271;72308;-81
2023/10/18 01:23:54;;;;;;;9.20;6.50;;;;;;;3.74;73.33;100118.85;104517;1276;69103;-82
2023/10/18 01:26:23;;;;;;;9.50;6.80;;;;;;;3.64;73.63;100113.63;106147;1271;71447;-79
2023/10/18 01:28:51;;;;;;;9.60;6.50;;;;;;;3.66;73.77;100114.21;107405;1271;60410;-81
2023/10/18 01:31:19;;;;;;;12.30;7.30;;;;;;;3.64;73.51;100110.46;106940;1270;59301;-82
2023/10/18 01:33:47;;;;;;;9.10;5.90;;;;;;;3.57;73.84;100108.92;105633;1270;74073;-85
2023/10/18 01:36:16;;;;;;;12.90;6.90;;;;;;;3.49;74.29;100111.74;105138;1271;70159;-84
2023/10/18 01:38:52;;;;;;;10.40;6.50;;;;;;;3.44;74.65;100108.66;105228;1273;72502;-81
2023/10/18 01:41:25;;;;;;;9.80;5.90;;;;;;;3.47;74.64;100108.58;104766;1276;60539;-80
2023/10/18 01:44:41;;;;;;;10.30;6.60;;;;;;;3.52;74.64;100110.54;105079;1270;60577;-80
2023/10/18 01:46:45;;;;;;;9.50;6.80;;;;;;;3.47;74.81;100107.19;104394;1276;73785;-80
2023/10/18 01:49:31;;;;;;;11.20;6.90;;;;;;;3.41;75.18;100110.97;104510;1276;69044;-80
2023/10/18 01:51:59;;;;;;;8.80;6.90;;;;;;;3.36;75.52;100115.20;105299;1276;71576;-80
2023/10/18 01:54:27;;;;;;;8.20;6.30;;;;;;;3.43;75.26;100112.07;105781;1271;60122;-78
2023/10/18 01:56:54;;;;;;;12.80;7.50;;;;;;;3.49;75.63;100117.94;104771;1273;60478;-77
2023/10/18 01:59:25;;;;;;;9.80;6.30;;;;;;;3.46;75.57;100115.14;105218;1276;73934;-82
2023/10/18 02:01:53;;;;;;;10.70;7.90;;;;;;;3.42;75.88;100114.39;105557;1276;68998;-81
2023/10/18 02:04:26;;;;;;;10.10;6.60;;;;;;;3.36;75.99;100112.52;105240;1271;72794;-79
2023/10/18 02:06:59;;;;;;;10.70;6.70;;;;;;;3.34;76.06;100115.33;105886;1276;60565;-81
2023/10/18 02:09:28;;;;;;;9.20;5.80;;;;;;;3.43;75.89;100115.03;107369;1274;60354;-80
2023/10/18 02:11:55;;;;;;;10.20;6.80;;;;;;;3.44;75.85;100113.95;107565;1271;72736;-81
2023/10/18 02:14:21;;;;;;;12.40;7.40;;;;;;;3.37;75.94;100113.19;106850;1271;68815;-84
2023/10/18 02:16:48;;;;;;;11.50;8.20;;;;;;;3.29;75.96;100111.28;107292;1271;72758;-86
2023/10/18 02:19:21;;;;;;;11.70;6.80;;;;;;;3.26;76.06;100113.27;106032;1270;61021;-82
2023/10/18 02:21:49;;;;;;;13.80;8.30;;;;;;;3.35;76.28;100111.60;107201;1272;59019;-81
2023/10/18 02:24:17;;;;;;;10.80;7.80;;;;;;;3.37;76.15;100108.45;107091;1272;72716;-81
2023/10/18 02:26:56;;;;;;;11.50;8.70;;;;;;;3.32;76.32;100106.16;107184;1270;69052;-86
2023/10/18 02:29:27;;;;;;;12.60;8.00;;;;;;;3.27;76.57;100105.16;107845;1270;71100;-87
2023/10/18 02:32:04;;;;;;;20.90;12.80;;;;;;;3.25;76.66;100104.11;107488;1271;59994;-81
2023/10/18 02:34:33;;;;;;;17.50;8.70;;;;;;;3.32;76.51;100105.64;107619;1270;59150;-83
2023/10/18 02:37:04;;;;;;;11.90;7.70;;;;;;;3.32;76.31;100102.73;107366;1270;72606;-84
2023/10/18 02:39:34;;;;;;;12.70;7.70;;;;;;;3.28;76.69;100105.09;107603;1271;68883;-83
2023/10/18 02:42:06;;;;;;;13.20;7.10;;;;;;;3.24;76.73;100099.29;108191;1270;71384;-84
2023/10/18 02:45:30;;;;;;;13.60;7.40;;;;;;;3.24;76.79;100094.92;108313;1272;60024;-85
2023/10/18 02:48:08;;;;;;;12.70;7.30;;;;;;;3.34;76.42;100093.46;108211;1272;58872;-89
2023/10/18 02:51:46;;;;;;;11.60;8.00;;;;;;;3.27;76.91;100090.30;108340;1270;73004;-89
2023/10/18 02:56:50;;;;;;;18.20;12.10;;;;;;;3.20;76.92;100082.94;108202;1270;71313;-87
2023/10/18 02:59:21;;;;;;;13.50;9.60;;;;;;;3.27;76.95;100085.01;107966;1270;59957;-88
2023/10/18 03:01:49;;;;;;;12.70;8.00;;;;;;;3.29;76.88;100089.13;107969;1272;58818;-88
2023/10/18 03:04:22;;;;;;;11.40;7.90;;;;;;;3.22;76.86;100086.77;108345;1270;72295;-89
2023/10/18 03:06:52;;;;;;;10.00;6.70;;;;;;;3.17;77.23;100091.55;108225;1272;69056;-84
2023/10/18 03:12:03;;;;;;;11.80;7.80;;;;;;;3.24;77.18;100087.16;108375;1272;58383;-89
2023/10/18 03:14:41;;;;;;;14.10;8.20;;;;;;;3.23;77.15;100084.84;108093;1272;58843;-87
2023/10/18 03:17:24;;;;;;;14.10;8.50;;;;;;;3.16;77.45;100080.09;108032;1270;72724;-86
2023/10/18 03:19:56;;;;;;;14.40;9.40;;;;;;;3.10;77.42;100078.93;108175;1270;69050;-85
2023/10/18 03:22:26;;;;;;;14.10;9.10;;;;;;;3.15;77.41;100072.77;108202;1270;71485;-89
2023/10/18 03:24:56;;;;;;;11.20;7.50;;;;;;;3.18;77.45;100069.06;107962;1270;58004;-87
2023/10/18 03:27:33;;;;;;;13.10;7.70;;;;;;;3.14;77.60;100071.13;108393;1270;58879;-85
2023/10/18 03:30:12;;;;;;;13.80;7.30;;;;;;;3.09;77.64;100072.36;108260;1270;72656;-86
2023/10/18 03:32:39;;;;;;;28.40;16.00;;;;;;;3.04;77.65;100074.94;108302;1272;69147;-84
2023/10/18 03:35:09;;;;;;;13.00;8.20;;;;;;;3.12;77.71;100072.83;107911;1270;71902;-82
2023/10/18 03:37:39;;;;;;;11.30;8.70;;;;;;;3.14;77.49;100075.66;107909;1270;58378;-83
2023/10/18 03:40:20;;;;;;;12.70;8.50;;;;;;;3.07;77.63;100074.42;107552;1266;60361;-80
2023/10/18 03:42:53;;;;;;;15.10;8.40;;;;;;;2.99;77.81;100073.43;108312;1272;72618;-82
2023/10/18 03:45:27;;;;;;;10.50;7.50;;;;;;;2.97;78.10;100075.15;107650;1270;69168;-82
2023/10/18 03:47:58;;;;;;;11.30;7.30;;;;;;;3.06;77.93;100073.27;107858;1270;72263;-84
2023/10/18 03:50:41;;;;;;;11.40;7.60;;;;;;;3.06;78.02;100073.09;108049;1270;58214;-85
2023/10/18 03:53:13;;;;;;;;;;;;;;;2.99;78.13;100068.51;108431;1270;59116;-87
2023/10/18 03:55:45;;;;;;;10.80;8.10;;;;;;;2.94;78.34;100067.17;107993;1270;72588;-84
2023/10/18 03:58:22;;;;;;;12.40;8.10;;;;;;;2.94;78.58;100068.69;108345;1270;69095;-87
2023/10/18 04:00:56;;;;;;;12.60;7.70;;;;;;;3.05;78.44;100068.77;108043;1270;71259;-82
2023/10/18 04:03:29;;;;;;;14.20;8.50;;;;;;;3.03;78.25;100070.70;108283;1270;58396;-86
2023/10/18 04:06:07;;;;;;;14.80;8.50;;;;;;;2.96;78.59;100074.84;108351;1269;58879;-83
2023/10/18 04:08:36;;;;;;;11.30;7.50;;;;;;;2.91;78.88;100069.96;108547;1270;72645;-87
2023/10/18 04:11:04;;;;;;;11.30;7.50;;;;;;;2.98;78.81;100070.72;108334;1270;68841;-87
2023/10/18 04:13:36;;;;;;;12.10;7.80;;;;;;;3.06;78.56;100067.63;107918;1270;71802;-84
2023/10/18 04:16:17;;;;;;;15.60;8.40;;;;;;;3.05;78.83;100064.61;108347;1270;60601;31
2023/10/18 04:18:45;;;;;;;13.70;8.20;;;;;;;3.01;78.61;100066.48;108611;1270;59134;-87
2023/10/18 04:24:45;;;;;;;13.10;7.40;;;;;;;3.10;78.60;100065.58;108396;1270;69191;-85
2023/10/18 04:27:11;;;;;;;11.90;8.50;;;;;;;3.07;78.35;100060.08;108388;1270;71222;-87
2023/10/18 04:29:39;;;;;;;10.80;8.20;;;;;;;3.01;78.61;100061.05;108299;1270;60204;-83
2023/10/18 04:32:17;;;;;;;13.70;9.10;;;;;;;2.96;78.68;100062.45;108379;1270;60338;-85
2023/10/18 04:34:46;;;;;;;10.90;7.70;;;;;;;3.04;78.67;100060.14;107845;1271;72353;-87
2023/10/18 04:37:14;;;;;;;13.90;7.90;;;;;;;3.07;78.44;100058.18;108069;1271;69051;-84
2023/10/18 04:39:43;;;;;;;14.60;8.80;;;;;;;3.02;78.67;100060.59;107932;1272;71310;-82
2023/10/18 04:42:16;;;;;;;16.00;8.80;;;;;;;2.98;78.67;100059.16;107832;1272;60354;-81
2023/10/18 04:44:49;;;;;;;15.90;9.70;;;;;;;2.98;78.61;100060.23;107412;1272;60475;-79
2023/10/18 04:47:17;;;;;;;14.40;8.60;;;;;;;3.07;78.25;100063.74;107752;1271;72645;-81
2023/10/18 04:50:00;;;;;;;18.10;10.60;;;;;;;3.05;78.33;100060.54;107454;1271;70883;-86
2023/10/18 04:52:40;;;;;;;21.80;12.70;;;;;;;3.00;78.66;100059.86;106924;1272;71391;-90
2023/10/18 04:55:32;;;;;;;18.30;10.30;;;;;;;2.97;78.87;100058.70;106967;1270;60360;-83
2023/10/18 04:58:00;;;;;;;21.70;11.70;;;;;;;3.08;78.67;100059.96;106998;1270;60320;-82
2023/10/18 05:00:50;;;;;;;20.10;13.30;;;;;;;3.14;78.47;100064.98;107539;1270;72594;-85
2023/10/18 05:03:17;;;;;;;23.80;13.90;;;;;;;3.13;78.79;100061.74;107240;1271;70476;-83
2023/10/18 05:05:45;;;;;;;24.70;12.90;;;;;;;3.12;78.85;100067.25;107075;1273;71353;-85
2023/10/18 05:08:16;;;;;;;19.60;12.00;;;;;;;3.14;79.00;100067.40;107377;1272;61251;-80
2023/10/18 05:10:46;;;;;;;17.40;10.60;;;;;;;3.29;78.62;100069.16;107986;1273;60562;-80
2023/10/18 05:13:19;;;;;;;11.90;9.30;;;;;;;3.31;78.60;100072.64;107979;1271;72546;-82
2023/10/18 05:16:05;;;;;;;15.70;9.50;;;;;;;3.32;78.54;100070.63;107992;1272;67910;-83
2023/10/18 05:18:32;;;;;;;10.40;8.00;;;;;;;3.38;78.30;100072.66;107883;1271;71514;-81
2023/10/18 05:20:59;;;;;;;11.10;8.20;;;;;;;3.53;78.02;100078.87;107915;1271;59010;-83
2023/10/18 05:23:26;;;;;;;13.40;8.80;;;;;;;3.60;77.85;100081.23;108346;1270;59489;-80
2023/10/18 05:28:47;;;;;;;13.80;9.00;;;;;;;3.60;77.58;100082.98;107850;1271;69327;-84
2023/10/18 05:34:05;;;;;;;11.70;8.90;;;;;;;3.75;77.18;100082.31;108025;1271;58264;-83
2023/10/18 05:42:13;;;;;;;12.60;9.00;;;;;;;3.75;77.06;100078.17;107844;1270;69100;-85
2023/10/18 05:44:41;;;;;;;15.20;9.60;;;;;;;3.82;77.10;100075.53;106484;1273;71555;-77
2023/10/18 05:47:08;;;;;;;15.00;9.60;;;;;;;3.81;77.12;100076.63;105058;1274;60516;-77
2023/10/18 05:49:41;;;;;;;16.00;9.60;;;;;;;3.81;77.13;100080.71;104804;1270;60389;-78
2023/10/18 05:54:37;;;;;;;12.30;9.20;;;;;;;3.89;77.19;100075.49;104789;1271;70119;-77
2023/10/18 05:57:07;;;;;;;17.80;9.90;;;;;;;3.97;77.16;100074.40;104779;1270;60446;-76
2023/10/18 05:59:34;;;;;;;17.80;9.70;;;;;;;3.95;77.16;100074.52;104758;1273;60450;-77
2023/10/18 06:02:01;;;;;;;15.80;8.90;;;;;;;3.93;77.22;100076.63;104412;1276;60513;-78
2023/10/18 06:04:33;;;;;;;15.10;9.60;;;;;;;3.95;77.73;100076.67;104767;1272;73839;-78
2023/10/18 06:07:09;;;;;;;14.60;9.40;;;;;;;4.09;77.59;100073.13;105174;1270;70354;-79
2023/10/18 06:09:46;;;;;;;18.60;9.90;;;;;;;4.16;77.19;100071.17;104674;1274;72808;-77
2023/10/18 06:12:14;;;;;;;15.50;10.50;;;;;;;4.17;77.17;100071.44;104669;1271;60546;-78
2023/10/18 06:14:44;;;;;;;18.40;10.70;;;;;;;4.18;77.15;100068.38;104679;1271;60600;-78
2023/10/18 06:17:19;;;;;;;17.20;11.00;;;;;;;4.25;77.05;100072.42;104681;1274;73803;-76
2023/10/18 06:19:47;;;;;;;14.60;9.90;;;;;;;4.41;76.76;100073.80;104431;1271;70407;-74
2023/10/18 06:22:28;;;;;;;17.10;11.00;;;;;;;4.44;76.38;100075.49;104818;1270;72521;-78
2023/10/18 06:25:00;;;;;;;17.50;11.30;;;;;;;4.42;76.34;100076.54;104670;1271;60983;-77
2023/10/18 06:27:28;;;;;;;18.50;12.00;;;;;;;4.40;76.11;100078.96;104741;1271;60570;-76
2023/10/18 06:29:55;;;;;;;19.70;11.90;;;;;;;4.49;76.12;100074.40;104797;1274;73988;-75
2023/10/18 06:32:28;;;;;;;16.90;11.70;;;;;;;4.56;75.73;100075.28;104668;1271;70158;-76
2023/10/18 06:34:57;;;;;;;20.90;12.90;;;;;;;4.52;75.66;100078.70;104815;1271;70348;-77
2023/10/18 06:37:24;;;;;;;23.30;11.80;;;;;;;4.50;75.86;100074.98;104730;1271;60612;-75
2023/10/18 06:39:51;;;;;;;18.70;11.40;;;;;;;4.56;75.88;100076.48;104818;1271;60574;-75
2023/10/18 06:42:22;;;;;;;17.00;12.10;;;;;;;4.73;75.38;100073.39;104615;1271;74026;-76
2023/10/18 06:44:49;;;;;;;18.70;11.70;;;;;;;4.82;75.15;100071.05;105037;1270;70196;-76
2023/10/18 06:47:16;;;;;;;18.20;11.90;;;;;;;4.87;75.00;100071.52;104812;1271;73154;-76
2023/10/18 06:49:42;;;;;;;15.70;10.40;;;;;;;4.93;74.71;100068.06;104760;1271;60518;-74
2023/10/18 06:52:13;;;;;;;14.30;10.50;;;;;;;5.04;74.46;100072.31;104723;1272;60568;-74
2023/10/18 06:54:42;;;;;;;15.80;10.50;;;;;;;5.24;73.69;100065.77;104766;1273;74157;-77
2023/10/18 06:57:26;;;;;;;17.00;10.70;;;;;;;5.37;73.48;100063.66;104638;1277;70489;-77
2023/10/18 06:59:54;;;;;;;16.50;10.60;;;;;;;5.43;72.48;100065.38;104712;1276;73006;-75
2023/10/18 07:02:27;;;;;;;15.80;10.50;;;;;;;5.47;72.31;100061.05;104713;1271;60558;-75
2023/10/18 07:04:56;;;;;;;19.50;11.00;;;;;;;5.51;72.46;100056.48;104710;1271;60559;-75
2023/10/18 07:07:24;;;;;;;12.50;9.50;;;;;;;5.57;72.24;100056.19;104660;1274;74285;-76
2023/10/18 07:09:55;;;;;;;13.00;9.40;;;;;;;5.64;72.10;100052.41;104678;1271;69139;-76
2023/10/18 07:12:26;;;;;;;16.00;10.10;;;;;;;5.84;71.37;100057.23;104794;1274;73094;-73
2023/10/18 07:14:56;;;;;;;15.00;10.20;;;;;;;5.92;70.55;100057.29;104729;1271;60887;-76
2023/10/18 07:17:26;;;;;;;14.60;11.30;;;;;;;5.91;70.66;100043.84;104726;1270;60635;-75
2023/10/18 07:19:55;;;;;;;15.80;10.60;;;;;;;5.94;70.63;100045.02;104715;1276;72542;-76
2023/10/18 07:22:39;;;;;;;14.90;11.00;;;;;;;5.99;70.29;100045.50;104512;1271;70430;-74
2023/10/18 07:25:08;;;;;;;13.40;10.10;;;;;;;6.06;70.17;100035.50;104707;1271;73050;-76
2023/10/18 07:27:36;;;;;;;12.80;9.50;;;;;;;6.18;70.30;100032.08;104711;1271;60574;-76
2023/10/18 07:30:13;;;;;;;13.80;9.50;;;;;;;6.35;69.80;100034.50;104532;1271;60492;-74
2023/10/18 07:32:42;;;;;;;11.20;8.90;;;;;;;6.52;69.37;100034.00;104757;1271;73637;-75
2023/10/18 07:35:12;;;;;;;11.20;8.60;;;;;;;6.79;68.88;100026.16;104767;1271;68907;-75
2023/10/18 07:37:41;;;;;;;10.40;7.50;;;;;;;7.04;68.26;100022.77;104694;1271;72626;-74
2023/10/18 07:40:10;;;;;;;11.30;8.60;;;;;;;7.24;67.31;100023.34;104587;1271;60577;-73
2023/10/18 07:42:43;;;;;;;11.20;8.30;;;;;;;7.42;66.43;100019.08;104717;1271;60572;-74
2023/10/18 07:45:22;;;;;;;14.60;8.40;;;;;;;7.56;66.04;100019.04;104498;1276;73880;-73
2023/10/18 07:47:55;;;;;;;13.20;8.20;;;;;;;7.67;65.88;100021.54;104725;1272;70556;-74
2023/10/18 07:50:34;;;;;;;11.50;8.50;;;;;;;7.73;65.19;100020.90;104713;1271;72732;-75
2023/10/18 07:53:01;;;;;;;13.60;9.60;;;;;;;7.70;65.40;100020.52;104547;1271;60642;-74
2023/10/18 07:55:28;;;;;;;11.60;8.40;;;;;;;7.67;65.32;100022.47;104615;1271;60484;-74
2023/10/18 07:57:55;;;;;;;12.50;9.30;;;;;;;7.62;65.36;100016.90;104648;1274;72963;-73
2023/10/18 08:00:22;;;;;;;14.30;10.00;;;;;;;7.56;65.61;100016.94;104592;1274;68994;-76
2023/10/18 08:02:49;;;;;;;12.00;8.10;;;;;;;7.56;65.97;100013.47;104736;1276;72612;-75
2023/10/18 08:05:22;;;;;;;10.40;7.60;;;;;;;7.64;65.97;100014.98;104738;1271;60516;-76
2023/10/18 08:07:50;;;;;;;13.40;8.20;;;;;;;7.80;65.83;100009.07;104644;1271;60547;-77
2023/10/18 08:10:20;;;;;;;13.10;8.90;;;;;;;7.99;65.26;100000.90;104646;1273;73737;-75
2023/10/18 08:15:36;;;;;;;11.80;7.60;;;;;;;8.27;64.08;100001.98;104707;1274;72670;-75
2023/10/18 08:18:15;;;;;;;12.60;8.60;;;;;;;8.40;63.98;99994.80;104800;1271;60889;-75
2023/10/18 08:25:51;;;;;;;9.90;7.50;;;;;;;8.78;62.40;99987.80;104587;1271;70757;-75
2023/10/18 08:28:18;;;;;;;12.40;6.70;;;;;;;8.90;62.47;99990.34;104694;1269;71330;-75
2023/10/18 08:33:11;;;;;;;9.60;6.20;;;;;;;9.14;61.16;99987.19;104599;1274;60519;-73
2023/10/18 08:35:38;;;;;;;10.00;5.90;;;;;;;9.24;61.09;99975.63;104649;1271;74978;-75
2023/10/18 08:38:05;;;;;;;9.90;6.90;;;;;;;9.39;61.12;99981.16;104696;1274;69404;-73
2023/10/18 08:43:12;;;;;;;10.20;5.50;;;;;;;9.60;59.39;99983.61;104612;1274;60370;-74
2023/10/18 08:45:48;;;;;;;10.70;6.60;;;;;;;9.68;59.91;99976.33;104794;1272;61343;-75
2023/10/18 08:48:28;;;;;;;8.50;6.50;;;;;;;9.90;59.83;99973.37;104631;1271;74034;-72
2023/10/18 08:50:56;;;;;;;7.70;5.70;;;;;;;10.23;58.60;99972.06;104402;1277;69112;-74
2023/10/18 08:53:26;;;;;;;8.50;5.50;;;;;;;10.43;57.61;99978.70;104583;1271;71759;-72
2023/10/18 08:55:57;;;;;;;8.20;4.90;;;;;;;10.62;57.32;99970.88;104801;1270;60507;-74
2023/10/18 08:58:30;;;;;;;9.50;5.20;;;;;;;10.88;57.17;99966.47;104559;1272;60568;-74
2023/10/18 09:03:24;;;;;;;6.10;4.30;;;;;;;11.69;55.31;99961.80;104590;1272;70353;-75
2023/10/18 09:05:52;;;;;;;7.30;4.90;;;;;;;12.09;53.97;99958.70;104669;1271;71644;-75
2023/10/18 09:08:19;;;;;;;5.20;4.60;;;;;;;12.41;52.92;99958.95;104655;1277;60534;-74
2023/10/18 09:10:49;;;;;;;9.30;5.40;;;;;;;12.62;52.09;99949.52;104686;1271;60469;-75
2023/10/18 09:15:54;;;;;;;6.40;4.20;;;;;;;12.72;50.10;99938.59;104352;1271;386742;-75
2023/10/18 09:19:27;;;;;;;6.40;4.40;;;;;;;12.48;50.08;99939.67;102504;1296;600381;-74
2023/10/18 09:21:57;;;;;;;4.80;3.60;;;;;;;12.07;49.81;99938.25;104938;1270;59334;-73
2023/10/18 09:24:30;;;;;;;5.50;4.20;;;;;;;11.89;50.44;99930.82;104906;1271;60202;-74
2023/10/18 09:27:00;;;;;;;6.70;4.00;;;;;;;11.81;50.73;99925.61;105631;1257;72473;-72
2023/10/18 09:29:29;;;;;;;5.70;3.70;;;;;;;11.74;50.47;99924.48;105605;1257;69193;-71
2023/10/18 09:32:09;;;;;;;7.50;4.50;;;;;;;11.63;50.70;99922.13;105214;1260;202792;-75
2023/10/18 09:34:42;;;;;;;8.20;4.20;;;;;;;11.65;50.27;99916.44;105538;1258;60088;-74
2023/10/18 09:37:13;;;;;;;4.80;3.90;;;;;;;12.00;49.87;99907.39;105765;1256;59364;-72
2023/10/18 09:39:45;;;;;;;5.40;4.10;;;;;;;12.57;49.21;99905.05;105353;1258;72947;-74
2023/10/18 09:42:15;;;;;;;6.00;4.30;;;;;;;12.92;48.14;99903.08;105670;1254;70575;-74
2023/10/18 09:44:44;;;;;;;6.20;4.40;;;;;;;12.91;48.18;99908.13;105838;1254;74723;-73
2023/10/18 09:47:12;;;;;;;8.70;4.20;;;;;;;12.65;48.47;99895.53;105910;1257;59938;-73
2023/10/18 09:49:42;;;;;;;8.10;5.30;;;;;;;12.34;49.11;99896.27;105744;1258;61143;-75
2023/10/18 09:52:13;;;;;;;7.00;4.60;;;;;;;12.06;49.80;99894.82;105512;1258;72538;-75
2023/10/18 09:54:51;;;;;;;8.40;4.90;;;;;;;11.77;49.84;99892.06;105676;1261;70095;-74
2023/10/18 09:57:23;;;;;;;8.40;4.40;;;;;;;11.42;49.59;99887.44;105771;1259;72503;-74
2023/10/18 09:59:53;;;;;;;7.20;4.60;;;;;;;11.09;49.89;99887.86;105860;1259;62712;-74
2023/10/18 10:02:21;;;;;;;4.40;3.60;;;;;;;10.87;50.46;99886.52;105745;1258;60081;-75
2023/10/18 10:04:52;;;;;;;5.80;3.10;;;;;;;10.74;50.72;99885.79;105706;1254;71804;-75
2023/10/18 10:07:37;;;;;;;5.80;3.20;;;;;;;10.63;50.55;99883.09;105806;1254;70210;-73
2023/10/18 10:10:17;;;;;;;6.60;3.70;;;;;;;10.51;49.86;99878.16;105779;1260;71785;-73
2023/10/18 10:12:45;;;;;;;5.00;3.10;;;;;;;10.40;49.59;99871.16;105702;1252;62167;-73
2023/10/18 10:15:17;;;;;;;5.00;2.70;;;;;;;10.32;49.53;99871.15;105783;1254;59642;-75
2023/10/18 10:17:55;;;;;;;5.30;3.30;;;;;;;10.28;49.88;99862.71;105717;1254;74412;-74
2023/10/18 10:20:31;;;;;;;5.10;3.20;;;;;;;10.25;49.90;99863.14;105918;1258;69009;-74
2023/10/18 10:23:02;;;;;;;4.60;3.40;;;;;;;10.20;50.18;99860.45;105713;1254;74620;-73
2023/10/18 10:25:32;;;;;;;6.50;3.20;;;;;;;10.15;50.34;99855.85;105818;1257;59791;-76
2023/10/18 10:31:58;;;;;;;6.70;3.20;;;;;;;10.05;50.89;99849.85;105750;1259;71698;-75
2023/10/18 10:34:27;;;;;;;7.90;4.70;;;;;;;10.02;50.70;99847.52;105786;1254;71907;-73
2023/10/18 10:37:12;;;;;;;4.70;3.30;;;;;;;9.98;50.61;99844.80;105699;1253;71441;-75
2023/10/18 10:39:44;;;;;;;5.80;3.20;;;;;;;9.88;50.76;99842.52;105730;1260;60108;-75
2023/10/18 10:42:19;;;;;;;5.00;3.70;;;;;;;9.74;51.01;99842.66;105769;1254;59756;-75
2023/10/18 10:44:54;;;;;;;6.30;3.60;;;;;;;9.60;51.25;99837.03;105848;1258;71633;-75
2023/10/18 10:47:31;;;;;;;4.30;2.60;;;;;;;9.50;51.42;99833.18;105814;1254;70449;-74
2023/10/18 10:50:00;;;;;;;6.90;3.60;;;;;;;9.43;52.27;99829.66;105776;1254;72885;-74
2023/10/18 10:52:31;;;;;;;6.80;3.30;;;;;;;9.39;51.80;99827.70;105665;1255;60116;-73
2023/10/18 10:55:03;;;;;;;7.00;5.00;;;;;;;9.37;52.24;99831.80;105948;1253;60246;-74
2023/10/18 10:57:43;;;;;;;7.30;4.70;;;;;;;9.34;51.80;99830.52;105987;1254;73107;-74
2023/10/18 11:03:30;;;;;;;4.30;3.70;;;;;;;9.31;51.69;99822.93;104874;1266;73309;-74
2023/10/18 11:05:58;;;;;;;6.10;5.00;;;;;;;9.30;51.46;99822.80;105838;1253;59668;-74
2023/10/18 11:08:27;;;;;;;5.00;3.90;;;;;;;9.32;51.89;99823.38;105845;1254;60124;-75
2023/10/18 11:10:55;;;;;;;6.50;4.50;;;;;;;9.29;51.38;99814.84;105695;1260;74419;-76
2023/10/18 11:13:25;;;;;;;5.30;4.10;;;;;;;9.30;50.84;99816.84;105861;1257;70100;-72
2023/10/18 11:15:53;;;;;;;4.80;4.10;;;;;;;9.28;50.89;99814.09;106072;1253;71681;-75
2023/10/18 11:18:20;;;;;;;6.00;4.50;;;;;;;9.27;51.09;99812.35;105805;1254;59719;-77
2023/10/18 11:20:58;;;;;;;5.50;4.40;;;;;;;9.28;51.13;99811.23;105753;1260;60641;-71
2023/10/18 11:23:26;;;;;;;6.50;4.50;;;;;;;9.28;51.46;99804.27;105750;1256;73122;-75
2023/10/18 11:25:58;;;;;;;9.80;4.70;;;;;;;9.30;51.25;99805.71;105801;1261;69030;-76
2023/10/18 11:28:29;;;;;;;9.20;4.60;;;;;;;9.32;51.28;99801.38;106031;1260;75371;-77
2023/10/18 11:30:57;;;;;;;9.20;5.50;;;;;;;9.37;51.56;99797.20;105514;1254;60052;-75
2023/10/18 11:33:47;;;;;;;10.20;5.00;;;;;;;9.41;51.57;99796.61;105819;1255;61146;-74
2023/10/18 11:36:20;;;;;;;5.40;4.50;;;;;;;9.41;51.54;99798.14;105815;1255;73155;-76
2023/10/18 11:41:37;;;;;;;7.00;4.40;;;;;;;9.40;52.39;99783.48;105875;1253;72454;-75
2023/10/18 11:44:07;;;;;;;6.20;5.40;;;;;;;9.39;52.90;99782.09;105731;1254;60261;-75
2023/10/18 11:46:56;;;;;;;24.50;18.10;;;;;;;9.40;52.97;99780.10;105606;1260;59650;-76
2023/10/18 11:49:34;;;;;;;22.90;12.30;;;;;;;9.41;53.40;99783.29;105864;1257;75437;-74
2023/10/18 11:52:02;;;;;;;14.10;8.60;;;;;;;9.43;53.54;99774.45;105882;1260;71579;-74
2023/10/18 11:54:31;;;;;;;10.40;6.60;;;;;;;9.44;53.59;99777.73;105967;1253;72347;-76
2023/10/18 11:57:02;;;;;;;9.00;5.80;;;;;;;9.43;54.05;99781.71;106042;1255;59656;-75
2023/10/18 11:59:30;;;;;;;9.90;7.10;;;;;;;9.41;53.79;99776.30;105895;1254;59667;-74
2023/10/18 12:01:59;;;;;;;8.20;5.60;;;;;;;9.40;54.05;99768.46;105906;1254;71210;-75
2023/10/18 12:04:37;;;;;;;8.30;5.50;;;;;;;9.40;54.00;99767.17;105875;1254;70660;-72
2023/10/18 12:07:08;;;;;;;7.90;5.80;;;;;;;9.40;53.55;99778.34;105573;1253;72696;-75
2023/10/18 12:09:45;;;;;;;11.70;5.80;;;;;;;9.38;53.56;99763.52;105855;1257;59826;-75
2023/10/18 12:12:13;;;;;;;11.60;6.30;;;;;;;9.37;54.01;99767.16;105866;1253;59657;-75
2023/10/18 12:14:41;;;;;;;11.90;6.60;;;;;;;9.34;54.14;99769.37;105678;1253;74628;-74
2023/10/18 12:17:09;;;;;;;14.50;8.60;;;;;;;9.32;54.16;99762.73;105827;1254;68017;-73
2023/10/18 12:19:37;;;;;;;11.60;6.20;;;;;;;9.29;54.27;99768.76;106065;1258;71483;-74
2023/10/18 12:22:07;;;;;;;12.50;6.60;;;;;;;9.24;54.53;99754.45;105979;1254;59685;-75
2023/10/18 12:24:35;;;;;;;9.90;5.70;;;;;;;9.23;54.23;99744.20;105847;1258;62403;-76
2023/10/18 12:27:18;;;;;;;9.90;6.00;;;;;;;9.26;54.58;99748.33;105636;1254;75423;-73
2023/10/18 12:29:45;;;;;;;17.70;6.50;;;;;;;9.33;54.54;99741.42;105761;1261;71372;-72
2023/10/18 12:32:42;;;;;;;10.50;6.00;;;;;;;9.40;54.56;99746.36;105850;1254;73367;-72